createdAt,value
2023-02-28T00:03:44.417Z,10.20
2023-02-28T00:08:47.960Z,9.30
2023-02-28T00:13:50.433Z,12.00
2023-02-28T00:18:53.737Z,10.90
2023-02-28T00:23:55.555Z,7.40
2023-02-28T00:28:57.242Z,10.60
2023-02-28T00:34:01.482Z,11.20
2023-02-28T00:39:03.283Z,7.20
2023-02-28T00:44:05.661Z,8.10
2023-02-28T00:49:09.325Z,9.00
2023-02-28T00:54:13.317Z,12.40
2023-02-28T00:59:16.514Z,18.30
2023-02-28T01:04:18.331Z,15.40
2023-02-28T01:09:20.166Z,9.20
2023-02-28T01:14:21.876Z,11.00
2023-02-28T01:19:23.801Z,21.40
2023-02-28T01:24:25.490Z,14.60
2023-02-28T01:29:27.180Z,11.20
2023-02-28T01:34:28.968Z,12.80
2023-02-28T01:39:30.660Z,9.70
2023-02-28T01:45:07.528Z,7.60
2023-02-28T01:50:15.961Z,6.00
2023-02-28T01:55:20.644Z,10.80
2023-02-28T02:00:27.719Z,6.80
2023-02-28T02:05:35.557Z,8.20
2023-02-28T02:10:42.405Z,7.10
2023-02-28T02:15:55.698Z,12.50
2023-02-28T02:21:28.069Z,10.10
2023-02-28T02:27:19.270Z,9.20
2023-02-28T02:33:07.491Z,11.80
2023-02-28T02:38:35.431Z,11.40
2023-02-28T02:43:45.404Z,5.40
2023-02-28T02:48:48.327Z,9.70
2023-02-28T02:53:55.836Z,11.20
2023-02-28T02:59:03.864Z,10.00
2023-02-28T03:04:17.203Z,5.90
2023-02-28T03:09:18.904Z,11.50
2023-02-28T03:14:28.173Z,11.70
2023-02-28T03:19:51.514Z,25.70
2023-02-28T03:25:01.006Z,21.10
2023-02-28T03:30:35.341Z,13.60
2023-02-28T03:35:42.731Z,15.30
2023-02-28T03:40:51.192Z,16.00
2023-02-28T03:45:55.235Z,15.20
2023-02-28T03:51:00.579Z,16.60
2023-02-28T03:56:17.262Z,16.30
2023-02-28T04:01:31.702Z,31.60
2023-02-28T04:06:35.140Z,19.80
2023-02-28T04:11:42.926Z,15.90
2023-02-28T04:16:44.699Z,20.90
2023-02-28T04:21:49.383Z,16.00
2023-02-28T04:26:53.512Z,13.20
2023-02-28T04:31:57.282Z,14.00
2023-02-28T04:37:12.247Z,13.60
2023-02-28T04:42:15.033Z,37.40
2023-02-28T04:47:17.596Z,44.20
2023-02-28T04:52:19.560Z,19.40
2023-02-28T04:57:21.235Z,17.40
2023-02-28T05:02:24.927Z,20.50
2023-02-28T05:07:26.769Z,19.60
2023-02-28T05:12:28.642Z,18.20
2023-02-28T05:17:30.487Z,33.40
2023-02-28T05:22:33.021Z,15.30
2023-02-28T05:27:34.999Z,15.80
2023-02-28T05:32:43.835Z,15.90
2023-02-28T05:37:45.553Z,17.40
2023-02-28T05:42:48.018Z,21.90
2023-02-28T05:47:49.766Z,27.00
2023-02-28T05:52:52.141Z,13.50
2023-02-28T05:57:53.960Z,14.70
2023-02-28T06:02:58.994Z,11.60
2023-02-28T06:13:05.732Z,15.80
2023-02-28T06:18:07.761Z,26.90
2023-02-28T06:23:09.499Z,16.80
2023-02-28T06:28:11.170Z,14.00
2023-02-28T06:33:12.911Z,11.20
2023-02-28T06:38:14.924Z,9.00
2023-02-28T06:43:16.875Z,23.70
2023-02-28T06:48:18.876Z,17.40
2023-02-28T06:53:21.066Z,12.60
2023-02-28T06:58:22.884Z,11.70
2023-02-28T07:03:24.806Z,15.10
2023-02-28T07:08:27.794Z,7.10
2023-02-28T07:13:29.848Z,19.20
2023-02-28T07:18:32.264Z,17.90
2023-02-28T07:23:36.657Z,10.30
2023-02-28T07:29:03.647Z,17.70
2023-02-28T07:34:05.512Z,6.00
2023-02-28T07:39:07.365Z,9.30
2023-02-28T07:44:09.669Z,10.70
2023-02-28T07:49:11.425Z,15.10
2023-02-28T07:54:13.046Z,8.90
2023-02-28T07:59:14.696Z,13.50
2023-02-28T08:04:16.447Z,15.30
2023-02-28T08:09:18.107Z,14.30
2023-02-28T08:14:19.842Z,19.70
2023-02-28T08:19:21.473Z,19.30
2023-02-28T08:24:23.511Z,12.10
2023-02-28T08:29:25.201Z,7.70
2023-02-28T08:34:26.930Z,9.60
2023-02-28T08:39:28.654Z,15.30
2023-02-28T08:44:30.364Z,6.60
2023-02-28T08:49:32.117Z,12.70
2023-02-28T08:54:35.247Z,13.50
2023-02-28T08:59:36.903Z,10.40
2023-02-28T09:04:38.609Z,13.50
2023-02-28T09:09:54.452Z,7.80
2023-02-28T09:14:56.191Z,9.20
2023-02-28T09:19:58.474Z,23.70
2023-02-28T09:25:00.159Z,11.10
2023-02-28T09:30:01.887Z,6.80
2023-02-28T09:35:03.910Z,8.00
2023-02-28T09:40:06.797Z,8.70
2023-02-28T09:45:25.542Z,4.90
2023-02-28T09:50:27.297Z,5.00
2023-02-28T09:55:46.526Z,6.20
2023-02-28T10:00:58.990Z,4.40
2023-02-28T10:06:18.001Z,6.50
2023-02-28T10:11:21.727Z,7.20
2023-02-28T10:16:34.623Z,8.90
2023-02-28T10:21:48.761Z,7.10
2023-02-28T10:26:53.757Z,6.80
2023-02-28T10:31:55.449Z,8.30
2023-02-28T10:36:57.378Z,7.20
2023-02-28T10:41:59.114Z,7.80
2023-02-28T10:47:01.168Z,8.80
2023-02-28T10:52:02.995Z,7.80
2023-02-28T10:57:16.952Z,7.90
2023-02-28T11:02:39.214Z,7.00
2023-02-28T11:07:52.866Z,12.10
2023-02-28T11:12:58.172Z,6.80
2023-02-28T11:18:21.981Z,8.90
2023-02-28T11:23:28.786Z,11.60
2023-02-28T11:28:36.493Z,7.50
2023-02-28T11:33:49.802Z,12.30
2023-02-28T11:38:54.018Z,11.20
2023-02-28T11:44:32.240Z,10.30
2023-02-28T11:50:08.498Z,9.30
2023-02-28T11:55:31.296Z,5.80
2023-02-28T12:01:10.702Z,8.00
2023-02-28T12:06:43.097Z,7.00
2023-02-28T12:11:56.305Z,11.60
2023-02-28T12:17:23.514Z,8.80
2023-02-28T12:22:31.566Z,12.30
2023-02-28T12:27:40.760Z,9.30
2023-02-28T12:32:47.806Z,11.30
2023-02-28T12:37:59.950Z,10.50
2023-02-28T12:43:08.400Z,10.40
2023-02-28T12:48:16.653Z,11.30
2023-02-28T12:53:57.812Z,10.90
2023-02-28T12:59:05.919Z,9.40
2023-02-28T13:04:38.551Z,10.80
2023-02-28T13:09:41.018Z,8.10
2023-02-28T13:14:43.613Z,9.00
2023-02-28T13:19:56.432Z,13.40
2023-02-28T13:24:58.789Z,11.90
2023-02-28T13:30:01.453Z,11.30
2023-02-28T13:35:06.113Z,12.10
2023-02-28T13:40:10.932Z,12.10
2023-02-28T13:45:12.737Z,7.80
2023-02-28T13:50:39.000Z,12.40
2023-02-28T13:56:05.584Z,10.90
2023-02-28T14:01:32.953Z,12.30
2023-02-28T14:06:36.649Z,17.40
2023-02-28T14:11:40.637Z,9.00
2023-02-28T14:16:48.011Z,9.70
2023-02-28T14:22:20.077Z,9.80
2023-02-28T14:27:43.834Z,7.80
2023-02-28T14:32:55.511Z,12.50
2023-02-28T14:37:57.968Z,9.90
2023-02-28T14:43:01.989Z,6.20
2023-02-28T14:48:09.326Z,13.80
2023-02-28T14:53:18.906Z,8.70
2023-02-28T14:58:32.202Z,9.50
2023-02-28T15:03:36.816Z,10.50
2023-02-28T15:08:38.549Z,11.90
2023-02-28T15:13:52.679Z,7.40
2023-02-28T15:18:58.918Z,11.30
2023-02-28T15:24:15.278Z,9.40
2023-02-28T15:29:23.766Z,12.50
2023-02-28T15:34:45.319Z,14.20
2023-02-28T15:39:48.359Z,12.00
2023-02-28T15:44:50.360Z,8.50
2023-02-28T15:49:55.735Z,11.90
2023-02-28T15:54:57.471Z,10.60
2023-02-28T16:00:05.462Z,9.00
2023-02-28T16:05:13.590Z,12.50
2023-02-28T16:10:15.690Z,15.50
2023-02-28T16:15:29.963Z,10.90
2023-02-28T16:20:32.300Z,14.00
2023-02-28T16:25:43.450Z,15.20
2023-02-28T16:35:46.768Z,23.50
2023-02-28T16:40:50.816Z,20.50
2023-02-28T16:46:01.261Z,31.20
2023-02-28T16:51:05.338Z,28.40
2023-02-28T16:56:11.975Z,16.20
2023-02-28T17:01:14.653Z,20.20
2023-02-28T17:06:31.453Z,15.80
2023-02-28T17:11:33.769Z,16.00
2023-02-28T17:16:40.574Z,17.10
2023-02-28T17:21:43.187Z,18.40
2023-02-28T17:26:45.091Z,21.70
2023-02-28T17:31:46.882Z,20.80
2023-02-28T17:36:51.405Z,18.30
2023-02-28T17:41:54.418Z,23.40
2023-02-28T17:46:57.296Z,27.60
2023-02-28T17:51:58.951Z,20.20
2023-02-28T17:57:01.025Z,27.60
2023-02-28T18:02:04.564Z,29.60
2023-02-28T18:07:13.412Z,18.50
2023-02-28T18:12:15.069Z,23.60
2023-02-28T18:17:16.761Z,24.80
2023-02-28T18:22:18.463Z,31.90
2023-02-28T18:27:20.188Z,27.80
2023-02-28T18:32:21.938Z,24.30
2023-02-28T18:37:53.305Z,24.10
2023-02-28T18:43:20.052Z,31.40
2023-02-28T18:48:23.271Z,24.00
2023-02-28T18:53:24.964Z,70.10
2023-02-28T18:58:27.506Z,60.80
2023-02-28T19:03:29.643Z,43.70
2023-02-28T19:08:31.423Z,37.20
2023-02-28T19:13:33.089Z,40.70
2023-02-28T19:18:34.917Z,34.40
2023-02-28T19:23:37.857Z,44.50
2023-02-28T19:28:40.445Z,47.00
2023-02-28T19:33:42.693Z,48.50
2023-02-28T19:38:45.036Z,36.90
2023-02-28T19:43:47.465Z,41.30
2023-02-28T19:48:49.239Z,45.90
2023-02-28T19:53:52.498Z,85.30
2023-02-28T19:58:54.143Z,63.50
2023-02-28T20:03:55.975Z,102.20
2023-02-28T20:08:57.661Z,61.10
2023-02-28T20:14:00.555Z,57.70
2023-02-28T20:19:02.349Z,61.30
2023-02-28T20:24:04.438Z,87.10
2023-02-28T20:29:08.551Z,57.30
2023-02-28T20:34:11.244Z,50.60
2023-02-28T20:39:13.581Z,52.80
2023-02-28T20:44:15.297Z,42.40
2023-02-28T20:49:17.192Z,23.60
2023-02-28T20:54:19.029Z,40.60
2023-02-28T20:59:22.254Z,59.60
2023-02-28T21:04:24.017Z,38.30
2023-02-28T21:09:25.779Z,34.10
2023-02-28T21:14:28.600Z,50.10
2023-02-28T21:19:30.303Z,50.50
2023-02-28T21:24:32.080Z,34.00
2023-02-28T21:29:33.799Z,37.00
2023-02-28T21:34:35.433Z,41.50
2023-02-28T21:39:37.177Z,34.90
2023-02-28T21:44:38.876Z,44.30
2023-02-28T21:49:40.514Z,38.10
2023-02-28T21:54:42.292Z,42.70
2023-02-28T21:59:44.051Z,96.90
2023-02-28T22:04:45.789Z,102.80
2023-02-28T22:09:48.106Z,101.40
2023-02-28T22:14:56.627Z,124.20
2023-02-28T22:19:59.418Z,119.80
2023-02-28T22:25:01.150Z,78.10
2023-02-28T22:30:03.274Z,76.40
2023-02-28T22:35:08.215Z,138.60
2023-02-28T22:40:10.571Z,159.40
2023-02-28T22:45:13.541Z,93.30
2023-02-28T22:50:20.432Z,79.90
2023-02-28T22:55:25.015Z,77.80
2023-02-28T23:00:26.691Z,74.10
2023-02-28T23:05:30.512Z,74.80
2023-02-28T23:10:32.238Z,134.40
2023-02-28T23:15:34.223Z,133.00
2023-02-28T23:20:36.084Z,77.40
2023-02-28T23:25:41.580Z,94.50
2023-02-28T23:30:43.310Z,69.30
2023-02-28T23:35:45.243Z,104.40
2023-02-28T23:40:47.011Z,65.60
2023-02-28T23:45:57.735Z,69.20
2023-02-28T23:51:08.507Z,49.00
2023-02-28T23:56:15.893Z,45.30
